createdAt,value
2023-01-19T00:01:01.019Z,10.82
2023-01-19T00:03:28.257Z,10.65
2023-01-19T00:05:55.654Z,10.73
2023-01-19T00:08:23.521Z,9.93
2023-01-19T00:10:51.395Z,10.20
2023-01-19T00:13:18.889Z,12.02
2023-01-19T00:15:46.123Z,9.68
2023-01-19T00:18:13.534Z,9.68
2023-01-19T00:20:40.880Z,10.75
2023-01-19T00:23:09.785Z,10.68
2023-01-19T00:25:42.291Z,12.05
2023-01-19T00:28:13.542Z,12.48
2023-01-19T00:30:43.839Z,11.43
2023-01-19T00:33:13.699Z,11.82
2023-01-19T00:35:42.690Z,10.23
2023-01-19T00:38:11.185Z,11.23
2023-01-19T00:40:38.482Z,12.15
2023-01-19T00:43:06.053Z,11.90
2023-01-19T00:45:34.213Z,11.80
2023-01-19T00:48:01.894Z,12.23
2023-01-19T00:50:30.151Z,11.85
2023-01-19T00:52:57.730Z,11.88
2023-01-19T00:55:25.163Z,10.63
2023-01-19T00:57:52.598Z,12.50
2023-01-19T01:00:20.817Z,12.23
2023-01-19T01:02:49.704Z,11.52
2023-01-19T01:05:17.037Z,11.20
2023-01-19T01:10:24.809Z,11.05
2023-01-19T01:12:56.176Z,11.50
2023-01-19T01:15:26.427Z,12.00
2023-01-19T01:17:53.971Z,12.02
2023-01-19T01:20:23.463Z,10.88
2023-01-19T01:22:52.191Z,11.55
2023-01-19T01:25:22.541Z,11.15
2023-01-19T01:27:50.688Z,10.63
2023-01-19T01:30:18.285Z,10.60
2023-01-19T01:32:45.883Z,11.02
2023-01-19T01:35:13.439Z,10.18
2023-01-19T01:37:41.149Z,11.73
2023-01-19T01:40:09.105Z,11.60
2023-01-19T01:42:36.886Z,11.55
2023-01-19T01:45:07.699Z,11.15
2023-01-19T01:47:36.930Z,11.40
2023-01-19T01:50:15.106Z,11.20
2023-01-19T01:53:06.132Z,10.70
2023-01-19T01:55:45.475Z,12.48
2023-01-19T01:58:13.585Z,10.82
2023-01-19T02:00:59.475Z,10.77
2023-01-19T02:03:26.918Z,10.73
2023-01-19T02:05:57.615Z,10.70
2023-01-19T02:08:50.768Z,10.77
2023-01-19T02:11:36.688Z,9.77
2023-01-19T02:14:04.946Z,10.05
2023-01-19T02:16:32.228Z,10.15
2023-01-19T02:19:01.204Z,10.75
2023-01-19T02:21:36.997Z,10.65
2023-01-19T02:24:04.843Z,9.50
2023-01-19T02:26:40.282Z,9.75
2023-01-19T02:29:08.494Z,10.05
2023-01-19T02:31:37.279Z,11.45
2023-01-19T02:34:04.876Z,10.90
2023-01-19T02:36:39.427Z,11.35
2023-01-19T02:39:06.773Z,12.00
2023-01-19T02:41:40.416Z,11.18
2023-01-19T02:44:08.631Z,12.45
2023-01-19T02:46:36.757Z,10.93
2023-01-19T02:49:04.039Z,11.07
2023-01-19T02:51:34.237Z,11.00
2023-01-19T02:54:23.366Z,10.50
2023-01-19T02:56:55.786Z,11.45
2023-01-19T02:59:32.809Z,10.85
2023-01-19T03:02:09.535Z,11.63
2023-01-19T03:04:56.539Z,11.13
2023-01-19T03:07:48.292Z,11.18
2023-01-19T03:10:21.628Z,10.13
2023-01-19T03:13:07.943Z,10.95
2023-01-19T03:16:03.273Z,11.00
2023-01-19T03:18:31.759Z,12.40
2023-01-19T03:21:00.365Z,11.80
2023-01-19T03:23:30.125Z,10.75
2023-01-19T03:25:57.903Z,10.68
2023-01-19T03:28:25.440Z,10.00
2023-01-19T03:30:57.797Z,10.95
2023-01-19T03:33:29.854Z,11.40
2023-01-19T03:36:01.513Z,11.00
2023-01-19T03:38:28.845Z,9.40
2023-01-19T03:40:58.058Z,11.00
2023-01-19T03:43:25.594Z,11.38
2023-01-19T03:45:52.915Z,11.95
2023-01-19T03:48:21.445Z,10.55
2023-01-19T03:50:48.891Z,11.48
2023-01-19T03:53:16.666Z,10.40
2023-01-19T03:55:46.498Z,11.52
2023-01-19T03:58:13.777Z,10.95
2023-01-19T04:00:41.579Z,11.20
2023-01-19T04:03:15.617Z,11.15
2023-01-19T04:05:44.213Z,11.57
2023-01-19T04:08:11.998Z,11.18
2023-01-19T04:10:40.323Z,11.27
2023-01-19T04:13:07.996Z,11.00
2023-01-19T04:15:35.385Z,10.98
2023-01-19T04:18:02.852Z,9.63
2023-01-19T04:20:30.289Z,9.13
2023-01-19T04:23:01.445Z,9.37
2023-01-19T04:25:29.728Z,9.27
2023-01-19T04:27:58.447Z,9.75
2023-01-19T04:30:27.444Z,9.65
2023-01-19T04:32:56.303Z,9.82
2023-01-19T04:35:23.800Z,11.25
2023-01-19T04:37:51.042Z,9.60
2023-01-19T04:40:18.643Z,9.63
2023-01-19T04:42:46.120Z,10.35
2023-01-19T04:45:13.721Z,9.93
2023-01-19T04:47:42.721Z,9.90
2023-01-19T04:50:11.078Z,9.93
2023-01-19T04:52:38.834Z,10.52
2023-01-19T04:55:06.617Z,9.30
2023-01-19T04:57:33.943Z,9.43
2023-01-19T05:00:01.340Z,9.73
2023-01-19T05:02:28.645Z,9.27
2023-01-19T05:04:55.952Z,10.70
2023-01-19T05:07:23.225Z,8.57
2023-01-19T05:09:50.668Z,8.98
2023-01-19T05:12:18.071Z,10.02
2023-01-19T05:14:45.350Z,9.82
2023-01-19T05:17:12.573Z,9.80
2023-01-19T05:19:40.386Z,10.18
2023-01-19T05:22:07.605Z,8.43
2023-01-19T05:24:38.218Z,9.68
2023-01-19T05:27:05.719Z,9.80
2023-01-19T05:29:33.107Z,10.10
2023-01-19T05:32:01.159Z,9.52
2023-01-19T05:34:28.410Z,10.85
2023-01-19T05:36:55.705Z,9.52
2023-01-19T05:39:22.980Z,8.52
2023-01-19T05:41:50.222Z,9.43
2023-01-19T05:44:17.564Z,8.95
2023-01-19T05:46:44.827Z,9.75
2023-01-19T05:49:12.176Z,9.15
2023-01-19T05:51:40.502Z,9.77
2023-01-19T05:54:07.904Z,9.30
2023-01-19T05:56:39.412Z,9.65
2023-01-19T05:59:06.900Z,10.02
2023-01-19T06:01:37.439Z,8.95
2023-01-19T06:04:06.007Z,8.65
2023-01-19T06:06:33.848Z,8.45
2023-01-19T06:09:01.153Z,7.57
2023-01-19T06:11:28.530Z,7.13
2023-01-19T06:13:55.901Z,8.60
2023-01-19T06:16:23.352Z,8.20
2023-01-19T06:18:50.671Z,8.48
2023-01-19T06:21:17.910Z,8.30
2023-01-19T06:23:45.181Z,8.57
2023-01-19T06:26:12.481Z,8.18
2023-01-19T06:28:39.942Z,8.20
2023-01-19T06:31:07.280Z,8.60
2023-01-19T06:33:34.552Z,8.73
2023-01-19T06:36:02.609Z,8.20
2023-01-19T06:38:30.130Z,8.98
2023-01-19T06:41:02.708Z,8.60
2023-01-19T06:43:32.939Z,8.75
2023-01-19T06:46:03.523Z,8.63
2023-01-19T06:48:30.974Z,8.88
2023-01-19T06:50:59.653Z,8.73
2023-01-19T06:53:28.429Z,7.93
2023-01-19T06:56:03.257Z,9.00
2023-01-19T06:58:31.821Z,8.77
2023-01-19T07:01:03.627Z,8.27
2023-01-19T07:03:31.483Z,9.68
2023-01-19T07:06:00.881Z,8.77
2023-01-19T07:08:29.023Z,8.50
2023-01-19T07:11:26.263Z,8.70
2023-01-19T07:13:51.730Z,8.77
2023-01-19T07:16:19.249Z,8.40
2023-01-19T07:18:47.992Z,9.00
2023-01-19T07:21:15.749Z,9.00
2023-01-19T07:23:43.465Z,8.40
2023-01-19T07:26:10.809Z,8.60
2023-01-19T07:28:39.982Z,9.05
2023-01-19T07:31:07.285Z,7.97
2023-01-19T07:33:34.559Z,8.23
2023-01-19T07:36:01.824Z,6.95
2023-01-19T07:38:29.508Z,7.78
2023-01-19T07:41:09.521Z,7.35
2023-01-19T07:43:36.865Z,7.82
2023-01-19T07:46:05.175Z,8.10
2023-01-19T07:48:32.652Z,7.22
2023-01-19T07:51:01.220Z,7.78
2023-01-19T07:53:28.778Z,8.40
2023-01-19T07:55:56.756Z,7.65
2023-01-19T07:58:24.625Z,9.25
2023-01-19T08:00:52.712Z,7.63
2023-01-19T08:03:20.333Z,7.97
2023-01-19T08:05:52.008Z,7.45
2023-01-19T08:08:20.194Z,7.57
2023-01-19T08:10:50.310Z,7.32
2023-01-19T08:13:17.807Z,7.10
2023-01-19T08:15:45.738Z,8.45
2023-01-19T08:18:15.640Z,7.90
2023-01-19T08:20:43.061Z,8.52
2023-01-19T08:23:10.831Z,7.30
2023-01-19T08:25:42.393Z,7.50
2023-01-19T08:28:10.502Z,8.65
2023-01-19T08:30:38.547Z,7.18
2023-01-19T08:33:08.224Z,7.28
2023-01-19T08:35:37.260Z,6.60
2023-01-19T08:38:05.383Z,6.40
2023-01-19T08:40:40.310Z,5.85
2023-01-19T08:43:13.249Z,6.25
2023-01-19T08:45:46.648Z,6.47
2023-01-19T08:48:19.353Z,6.57
2023-01-19T08:50:47.661Z,7.45
2023-01-19T08:53:15.005Z,5.95
2023-01-19T08:55:42.323Z,5.70
2023-01-19T08:58:09.721Z,6.07
2023-01-19T09:00:38.021Z,6.03
2023-01-19T09:03:06.603Z,5.97
2023-01-19T09:05:37.245Z,6.53
2023-01-19T09:08:05.581Z,5.47
2023-01-19T09:10:36.084Z,6.75
2023-01-19T09:13:05.114Z,6.25
2023-01-19T09:15:34.042Z,6.82
2023-01-19T09:18:02.499Z,6.18
2023-01-19T09:20:31.216Z,6.25
2023-01-19T09:22:58.481Z,7.28
2023-01-19T09:25:25.810Z,7.65
2023-01-19T09:27:53.471Z,5.97
2023-01-19T09:30:20.804Z,6.20
2023-01-19T09:32:48.831Z,6.40
2023-01-19T09:35:16.568Z,6.47
2023-01-19T09:37:47.588Z,5.13
2023-01-19T09:40:16.361Z,6.43
2023-01-19T09:42:45.431Z,6.40
2023-01-19T09:45:47.131Z,4.72
2023-01-19T09:50:50.669Z,5.57
2023-01-19T09:53:33.118Z,5.47
2023-01-19T09:56:00.389Z,6.20
2023-01-19T09:58:27.616Z,5.50
2023-01-19T10:01:08.010Z,5.88
2023-01-19T10:03:35.912Z,6.35
2023-01-19T10:06:03.927Z,6.15
2023-01-19T10:08:45.242Z,5.05
2023-01-19T10:11:38.128Z,6.10
2023-01-19T10:14:25.975Z,5.28
2023-01-19T10:17:05.525Z,5.57
2023-01-19T10:19:36.844Z,5.05
2023-01-19T10:22:09.122Z,5.63
2023-01-19T10:24:39.066Z,6.15
2023-01-19T10:27:12.963Z,5.65
2023-01-19T10:29:40.191Z,4.97
2023-01-19T10:32:17.478Z,5.28
2023-01-19T10:34:44.772Z,4.95
2023-01-19T10:37:18.095Z,5.40
2023-01-19T10:39:56.124Z,4.80
2023-01-19T10:42:23.326Z,4.20
2023-01-19T10:44:50.597Z,4.32
2023-01-19T10:47:19.273Z,4.68
2023-01-19T10:49:47.218Z,4.53
2023-01-19T10:52:35.662Z,4.60
2023-01-19T10:55:04.311Z,3.83
2023-01-19T10:57:33.117Z,3.95
2023-01-19T11:00:00.554Z,4.32
2023-01-19T11:02:29.451Z,4.40
2023-01-19T11:04:58.836Z,4.68
2023-01-19T11:07:26.392Z,4.80
2023-01-19T11:10:27.118Z,4.47
2023-01-19T11:13:15.736Z,3.65
2023-01-19T11:15:44.818Z,4.13
2023-01-19T11:18:26.799Z,4.22
2023-01-19T11:20:54.779Z,4.00
2023-01-19T11:23:26.435Z,3.90
2023-01-19T11:25:54.885Z,3.72
2023-01-19T11:28:39.840Z,3.85
2023-01-19T11:31:10.145Z,4.43
2023-01-19T11:33:41.514Z,5.18
2023-01-19T11:38:50.634Z,3.70
2023-01-19T11:41:29.622Z,4.15
2023-01-19T11:44:27.949Z,4.28
2023-01-19T11:47:14.268Z,3.80
2023-01-19T11:49:47.457Z,4.43
2023-01-19T11:52:34.440Z,4.50
2023-01-19T11:55:22.876Z,4.07
2023-01-19T11:57:53.465Z,3.88
2023-01-19T12:03:06.796Z,4.45
2023-01-19T12:05:34.579Z,3.80
2023-01-19T12:08:06.629Z,4.18
2023-01-19T12:10:37.288Z,3.65
2023-01-19T12:13:04.839Z,3.55
2023-01-19T12:15:36.405Z,3.97
2023-01-19T12:18:04.789Z,3.85
2023-01-19T12:20:40.555Z,3.40
2023-01-19T12:23:28.106Z,3.30
2023-01-19T12:26:22.977Z,4.05
2023-01-19T12:28:51.086Z,4.05
2023-01-19T12:31:19.955Z,4.20
2023-01-19T12:33:47.548Z,4.63
2023-01-19T12:36:27.110Z,4.22
2023-01-19T12:39:05.592Z,4.68
2023-01-19T12:41:36.217Z,4.00
2023-01-19T12:44:13.973Z,4.28
2023-01-19T12:46:47.059Z,3.78
2023-01-19T12:49:47.741Z,4.35
2023-01-19T12:52:41.153Z,4.25
2023-01-19T12:55:14.395Z,4.13
2023-01-19T12:57:58.417Z,5.05
2023-01-19T13:00:25.579Z,4.65
2023-01-19T13:02:55.963Z,5.00
2023-01-19T13:05:33.184Z,5.70
2023-01-19T13:08:08.379Z,5.00
2023-01-19T13:11:12.482Z,5.18
2023-01-19T13:13:49.110Z,5.10
2023-01-19T13:16:19.340Z,5.68
2023-01-19T13:18:47.994Z,4.47
2023-01-19T13:21:45.444Z,4.75
2023-01-19T13:24:17.004Z,4.78
2023-01-19T13:26:50.526Z,4.63
2023-01-19T13:29:40.494Z,5.15
2023-01-19T13:32:16.909Z,5.38
2023-01-19T13:34:45.667Z,4.68
2023-01-19T13:37:22.757Z,5.50
2023-01-19T13:39:51.914Z,4.57
2023-01-19T13:42:34.562Z,6.25
2023-01-19T13:45:15.862Z,4.40
2023-01-19T13:47:44.939Z,5.72
2023-01-19T13:50:23.673Z,4.25
2023-01-19T13:52:53.943Z,5.63
2023-01-19T13:55:21.874Z,5.78
2023-01-19T13:57:49.776Z,4.65
2023-01-19T14:00:21.019Z,4.95
2023-01-19T14:02:57.186Z,5.22
2023-01-19T14:05:32.176Z,5.40
2023-01-19T14:08:08.854Z,5.10
2023-01-19T14:10:38.528Z,5.40
2023-01-19T14:13:32.884Z,5.03
2023-01-19T14:16:20.377Z,4.70
2023-01-19T14:19:04.710Z,5.38
2023-01-19T14:21:41.249Z,4.63
2023-01-19T14:24:18.559Z,5.53
2023-01-19T14:26:49.751Z,6.00
2023-01-19T14:29:31.068Z,6.13
2023-01-19T14:32:01.712Z,5.97
2023-01-19T14:34:41.399Z,5.45
2023-01-19T14:37:28.443Z,6.32
2023-01-19T14:40:01.615Z,5.38
2023-01-19T14:42:31.598Z,6.43
2023-01-19T14:45:00.690Z,5.63
2023-01-19T14:47:32.038Z,6.00
2023-01-19T14:52:40.127Z,6.15
2023-01-19T14:55:16.839Z,6.35
2023-01-19T14:57:44.091Z,6.97
2023-01-19T15:00:17.722Z,5.68
2023-01-19T15:02:45.919Z,7.10
2023-01-19T15:05:13.658Z,5.93
2023-01-19T15:07:42.178Z,5.93
2023-01-19T15:10:18.582Z,6.10
2023-01-19T15:12:46.232Z,5.78
2023-01-19T15:15:17.987Z,6.20
2023-01-19T15:17:45.297Z,6.65
2023-01-19T15:20:17.480Z,6.55
2023-01-19T15:22:45.018Z,6.70
2023-01-19T15:25:16.832Z,6.97
2023-01-19T15:27:44.350Z,6.60
2023-01-19T15:30:19.994Z,7.15
2023-01-19T15:32:47.498Z,6.55
2023-01-19T15:35:14.905Z,7.00
2023-01-19T15:37:42.169Z,6.90
2023-01-19T15:40:10.343Z,7.63
2023-01-19T15:42:37.640Z,7.00
2023-01-19T15:45:25.107Z,7.75
2023-01-19T15:47:52.342Z,7.57
2023-01-19T15:50:20.177Z,7.10
2023-01-19T15:52:47.650Z,8.27
2023-01-19T15:55:15.974Z,8.10
2023-01-19T15:57:43.249Z,6.90
2023-01-19T16:00:11.218Z,7.15
2023-01-19T16:02:38.498Z,6.95
2023-01-19T16:05:06.271Z,8.63
2023-01-19T16:07:34.396Z,7.25
2023-01-19T16:10:01.856Z,7.00
2023-01-19T16:12:29.305Z,7.97
2023-01-19T16:14:56.518Z,8.43
2023-01-19T16:17:23.827Z,8.40
2023-01-19T16:19:51.101Z,8.13
2023-01-19T16:22:18.359Z,7.60
2023-01-19T16:24:45.743Z,8.40
2023-01-19T16:27:12.957Z,8.77
2023-01-19T16:29:40.216Z,8.23
2023-01-19T16:32:07.419Z,8.95
2023-01-19T16:34:34.725Z,8.85
2023-01-19T16:37:01.947Z,8.90
2023-01-19T16:39:29.366Z,9.35
2023-01-19T16:41:56.688Z,8.52
2023-01-19T16:44:23.917Z,8.88
2023-01-19T16:46:51.316Z,8.93
2023-01-19T16:49:20.231Z,9.00
2023-01-19T16:51:47.910Z,8.52
2023-01-19T16:54:26.054Z,9.65
2023-01-19T16:56:54.497Z,8.77
2023-01-19T16:59:22.423Z,8.88
2023-01-19T17:01:53.166Z,9.13
2023-01-19T17:04:20.984Z,9.35
2023-01-19T17:06:48.213Z,9.27
2023-01-19T17:09:15.500Z,8.68
2023-01-19T17:11:42.767Z,9.25
2023-01-19T17:14:20.298Z,9.25
2023-01-19T17:16:47.747Z,8.05
2023-01-19T17:19:16.566Z,9.38
2023-01-19T17:21:46.028Z,10.23
2023-01-19T17:24:13.287Z,9.18
2023-01-19T17:26:41.810Z,9.32
2023-01-19T17:29:24.205Z,9.48
2023-01-19T17:31:51.491Z,9.95
2023-01-19T17:34:18.775Z,10.35
2023-01-19T17:36:46.016Z,9.88
2023-01-19T17:39:14.958Z,10.70
2023-01-19T17:41:42.393Z,8.38
2023-01-19T17:44:09.851Z,9.45
2023-01-19T17:46:37.538Z,10.40
2023-01-19T17:49:05.433Z,8.48
2023-01-19T17:51:32.977Z,9.13
2023-01-19T17:54:00.215Z,10.27
2023-01-19T17:56:30.225Z,9.80
2023-01-19T17:58:57.909Z,9.55
2023-01-19T18:01:30.060Z,10.05
2023-01-19T18:03:57.442Z,8.65
2023-01-19T18:06:24.678Z,9.38
2023-01-19T18:08:52.570Z,9.10
2023-01-19T18:11:20.463Z,9.60
2023-01-19T18:13:48.559Z,8.32
2023-01-19T18:16:24.264Z,8.77
2023-01-19T18:18:53.629Z,9.00
2023-01-19T18:21:21.847Z,10.13
2023-01-19T18:23:50.038Z,8.27
2023-01-19T18:26:19.728Z,8.73
2023-01-19T18:28:47.318Z,8.20
2023-01-19T18:31:16.038Z,9.18
2023-01-19T18:33:43.399Z,8.30
2023-01-19T18:36:10.637Z,9.05
2023-01-19T18:38:38.387Z,9.15
2023-01-19T18:41:16.472Z,9.45
2023-01-19T18:43:47.249Z,7.97
2023-01-19T18:46:14.724Z,9.90
2023-01-19T18:48:41.941Z,8.85
2023-01-19T18:51:10.928Z,9.48
2023-01-19T18:53:38.546Z,8.80
2023-01-19T18:56:06.029Z,9.02
2023-01-19T18:58:33.595Z,9.82
2023-01-19T19:01:01.168Z,9.50
2023-01-19T19:03:28.989Z,9.45
2023-01-19T19:05:56.502Z,9.57
2023-01-19T19:08:23.821Z,8.38
2023-01-19T19:10:51.042Z,9.27
2023-01-19T19:13:20.577Z,9.02
2023-01-19T19:15:47.794Z,10.40
2023-01-19T19:18:16.306Z,10.25
2023-01-19T19:20:43.660Z,8.52
2023-01-19T19:23:11.375Z,8.70
2023-01-19T19:25:38.633Z,8.82
2023-01-19T19:28:06.001Z,9.35
2023-01-19T19:30:34.645Z,7.75
2023-01-19T19:33:02.519Z,8.82
2023-01-19T19:35:29.823Z,9.35
2023-01-19T19:37:57.740Z,9.15
2023-01-19T19:40:25.758Z,9.32
2023-01-19T19:42:53.075Z,8.95
2023-01-19T19:45:20.379Z,9.25
2023-01-19T19:47:47.857Z,10.55
2023-01-19T19:50:15.678Z,9.82
2023-01-19T19:52:42.992Z,9.30
2023-01-19T19:55:10.636Z,10.68
2023-01-19T19:57:37.972Z,9.77
2023-01-19T20:00:05.963Z,10.73
2023-01-19T20:02:33.266Z,9.85
2023-01-19T20:05:00.739Z,9.52
2023-01-19T20:07:28.023Z,8.93
2023-01-19T20:09:55.378Z,10.07
2023-01-19T20:12:22.623Z,9.65
2023-01-19T20:14:49.903Z,9.60
2023-01-19T20:17:17.159Z,9.98
2023-01-19T20:19:46.357Z,10.65
2023-01-19T20:22:14.405Z,10.07
2023-01-19T20:24:41.679Z,10.23
2023-01-19T20:27:08.863Z,11.27
2023-01-19T20:29:36.119Z,10.02
2023-01-19T20:32:03.430Z,10.25
2023-01-19T20:34:33.214Z,9.52
2023-01-19T20:37:01.846Z,10.60
2023-01-19T20:39:34.566Z,9.85
2023-01-19T20:42:01.807Z,10.13
2023-01-19T20:44:29.171Z,9.63
2023-01-19T20:46:56.617Z,10.27
2023-01-19T20:49:24.104Z,10.93
2023-01-19T20:51:52.161Z,10.85
2023-01-19T20:54:20.965Z,10.10
2023-01-19T20:56:48.327Z,10.10
2023-01-19T20:59:15.773Z,9.80
2023-01-19T21:01:43.641Z,9.65
2023-01-19T21:04:11.165Z,10.65
2023-01-19T21:06:38.800Z,9.10
2023-01-19T21:09:07.040Z,10.00
2023-01-19T21:11:34.787Z,10.02
2023-01-19T21:14:02.066Z,10.52
2023-01-19T21:16:31.626Z,11.00
2023-01-19T21:18:59.085Z,11.25
2023-01-19T21:21:31.521Z,9.48
2023-01-19T21:24:00.581Z,11.02
2023-01-19T21:26:29.984Z,10.38
2023-01-19T21:28:58.233Z,10.60
2023-01-19T21:31:27.588Z,11.10
2023-01-19T21:33:58.674Z,10.73
2023-01-19T21:36:26.021Z,10.65
2023-01-19T21:38:55.596Z,10.60
2023-01-19T21:41:22.934Z,9.80
2023-01-19T21:43:50.194Z,11.48
2023-01-19T21:46:19.252Z,10.85
2023-01-19T21:48:46.733Z,10.13
2023-01-19T21:51:14.381Z,11.07
2023-01-19T21:53:41.905Z,10.35
2023-01-19T21:56:09.636Z,11.60
2023-01-19T21:58:36.974Z,11.35
2023-01-19T22:01:10.901Z,11.02
2023-01-19T22:03:38.379Z,10.02
2023-01-19T22:06:14.941Z,11.23
2023-01-19T22:08:42.295Z,10.10
2023-01-19T22:11:10.862Z,9.75
2023-01-19T22:13:40.884Z,10.88
2023-01-19T22:16:10.425Z,10.85
2023-01-19T22:18:38.415Z,12.23
2023-01-19T22:21:11.867Z,10.70
2023-01-19T22:23:39.411Z,10.65
2023-01-19T22:26:06.878Z,10.30
2023-01-19T22:28:34.377Z,10.68
2023-01-19T22:31:11.668Z,10.35
2023-01-19T22:33:39.179Z,10.70
2023-01-19T22:36:23.500Z,12.35
2023-01-19T22:38:55.601Z,10.52
2023-01-19T22:41:32.837Z,11.05
2023-01-19T22:44:02.528Z,10.90
2023-01-19T22:46:31.723Z,11.73
2023-01-19T22:48:59.122Z,10.60
2023-01-19T22:51:26.717Z,10.68
2023-01-19T22:53:54.098Z,11.05
2023-01-19T22:56:22.933Z,10.80
2023-01-19T22:58:50.201Z,11.02
2023-01-19T23:01:20.451Z,10.90
2023-01-19T23:03:47.868Z,11.15
2023-01-19T23:06:19.863Z,10.75
2023-01-19T23:08:47.131Z,11.88
2023-01-19T23:11:22.203Z,10.68
2023-01-19T23:13:49.487Z,10.48
2023-01-19T23:16:16.854Z,10.13
2023-01-19T23:18:44.176Z,11.90
2023-01-19T23:21:16.297Z,10.88
2023-01-19T23:23:43.749Z,11.07
2023-01-19T23:26:13.480Z,11.73
2023-01-19T23:28:40.727Z,12.15
2023-01-19T23:31:15.219Z,10.48
2023-01-19T23:33:44.080Z,11.48
2023-01-19T23:36:12.086Z,10.95
2023-01-19T23:38:39.613Z,11.65
2023-01-19T23:41:06.822Z,11.00
2023-01-19T23:43:34.132Z,11.13
2023-01-19T23:46:05.281Z,10.15
2023-01-19T23:48:33.900Z,10.45
2023-01-19T23:51:08.805Z,12.07
2023-01-19T23:53:36.148Z,9.80
2023-01-19T23:56:25.384Z,12.30
2023-01-19T23:58:54.512Z,9.90
